createdAt,value
2022-10-29T00:00:29.902Z,79.94
2022-10-29T00:01:29.997Z,79.75
2022-10-29T00:02:30.046Z,79.36
2022-10-29T00:03:30.028Z,79.75
2022-10-29T00:04:30.080Z,80.22
2022-10-29T00:05:30.086Z,79.94
2022-10-29T00:06:30.119Z,80.22
2022-10-29T00:07:30.155Z,79.75
2022-10-29T00:08:30.193Z,79.27
2022-10-29T00:09:30.230Z,79.75
2022-10-29T00:10:30.265Z,79.84
2022-10-29T00:11:30.302Z,79.36
2022-10-29T00:12:30.338Z,79.75
2022-10-29T00:13:30.374Z,80.04
2022-10-29T00:14:30.417Z,80.04
2022-10-29T00:15:30.446Z,80.04
2022-10-29T00:16:30.483Z,80.32
2022-10-29T00:17:30.520Z,79.84
2022-10-29T00:18:30.605Z,80.22
2022-10-29T00:19:30.590Z,80.61
2022-10-29T00:20:30.656Z,80.61
2022-10-29T00:21:30.669Z,80.13
2022-10-29T00:22:30.704Z,80.04
2022-10-29T00:23:30.768Z,80.22
2022-10-29T00:24:30.771Z,80.22
2022-10-29T00:25:30.814Z,80.99
2022-10-29T00:26:30.844Z,80.90
2022-10-29T00:27:30.883Z,81.19
2022-10-29T00:28:30.919Z,80.90
2022-10-29T00:29:30.953Z,80.80
2022-10-29T00:30:30.989Z,81.19
2022-10-29T00:31:31.133Z,80.51
2022-10-29T00:32:31.062Z,80.42
2022-10-29T00:33:31.099Z,80.90
2022-10-29T00:34:31.135Z,80.71
2022-10-29T00:35:31.170Z,80.90
2022-10-29T00:36:31.207Z,81.38
2022-10-29T00:37:31.245Z,80.90
2022-10-29T00:38:31.281Z,80.80
2022-10-29T00:39:31.315Z,80.71
2022-10-29T00:40:31.357Z,80.71
2022-10-29T00:41:31.389Z,80.80
2022-10-29T00:42:31.428Z,81.38
2022-10-29T00:43:31.461Z,80.80
2022-10-29T00:44:31.496Z,81.38
2022-10-29T00:45:31.535Z,81.28
2022-10-29T00:46:31.682Z,81.48
2022-10-29T00:47:31.606Z,81.57
2022-10-29T00:48:31.642Z,81.28
2022-10-29T00:49:31.677Z,81.86
2022-10-29T00:50:31.713Z,81.48
2022-10-29T00:51:31.750Z,81.48
2022-10-29T00:52:31.787Z,81.28
2022-10-29T00:53:31.823Z,81.19
2022-10-29T00:54:31.858Z,80.99
2022-10-29T00:55:31.954Z,81.48
2022-10-29T00:56:31.932Z,81.86
2022-10-29T00:57:31.970Z,81.86
2022-10-29T00:58:32.010Z,82.15
2022-10-29T00:59:32.038Z,82.05
2022-10-29T01:00:32.074Z,81.57
2022-10-29T01:01:32.268Z,81.67
2022-10-29T01:02:32.313Z,82.15
2022-10-29T01:03:32.187Z,82.05
2022-10-29T01:04:32.224Z,82.63
2022-10-29T01:05:32.259Z,82.43
2022-10-29T01:06:32.301Z,82.24
2022-10-29T01:07:32.342Z,82.43
2022-10-29T01:08:32.385Z,82.34
2022-10-29T01:09:32.412Z,82.73
2022-10-29T01:10:32.447Z,82.92
2022-10-29T01:11:32.482Z,83.01
2022-10-29T01:12:32.522Z,83.11
2022-10-29T01:13:32.560Z,82.63
2022-10-29T01:14:32.595Z,82.82
2022-10-29T01:15:32.626Z,82.82
2022-10-29T01:16:32.663Z,83.20
2022-10-29T01:17:32.699Z,82.92
2022-10-29T01:18:32.782Z,82.92
2022-10-29T01:19:32.773Z,83.11
2022-10-29T01:20:32.812Z,82.82
2022-10-29T01:21:32.845Z,82.82
2022-10-29T01:22:32.881Z,83.11
2022-10-29T01:23:32.919Z,83.30
2022-10-29T01:24:32.953Z,83.69
2022-10-29T01:25:32.991Z,83.11
2022-10-29T01:26:33.024Z,83.69
2022-10-29T01:27:33.062Z,83.40
2022-10-29T01:28:33.099Z,83.30
2022-10-29T01:29:33.133Z,83.11
2022-10-29T01:30:33.169Z,83.45
2022-10-29T01:31:33.205Z,83.69
2022-10-29T01:32:33.242Z,83.59
2022-10-29T01:33:33.279Z,83.69
2022-10-29T01:36:05.233Z,83.45
2022-10-29T01:37:05.238Z,84.03
2022-10-29T01:38:58.406Z,83.84
2022-10-29T01:39:58.438Z,84.12
2022-10-29T01:42:02.535Z,84.22
2022-10-29T01:43:02.567Z,84.12
2022-10-29T01:44:55.738Z,84.41
2022-10-29T01:45:55.768Z,84.22
2022-10-29T01:47:48.945Z,84.51
2022-10-29T01:48:48.972Z,84.31
2022-10-29T01:50:53.079Z,83.36
2022-10-29T01:51:53.079Z,84.03
2022-10-29T01:53:57.164Z,84.60
2022-10-29T01:54:57.195Z,83.93
2022-10-29T01:56:50.239Z,84.99
2022-10-29T01:57:50.246Z,84.31
2022-10-29T01:59:55.303Z,84.03
2022-10-29T02:00:43.512Z,84.51
2022-10-29T02:02:36.646Z,84.51
2022-10-29T02:03:36.649Z,84.41
2022-10-29T02:05:29.846Z,84.60
2022-10-29T02:06:29.851Z,84.22
2022-10-29T02:08:23.023Z,84.31
2022-10-29T02:09:23.053Z,84.60
2022-10-29T02:11:16.230Z,84.80
2022-10-29T02:12:16.261Z,84.89
2022-10-29T02:14:09.501Z,84.89
2022-10-29T02:15:09.484Z,84.70
2022-10-29T02:17:02.464Z,85.08
2022-10-29T02:18:02.491Z,84.80
2022-10-29T02:20:06.561Z,85.37
2022-10-29T02:21:06.589Z,85.08
2022-10-29T02:22:59.759Z,85.18
2022-10-29T02:23:59.792Z,85.85
2022-10-29T02:25:53.025Z,85.57
2022-10-29T02:26:52.984Z,85.37
2022-10-29T02:28:46.213Z,85.42
2022-10-29T02:29:46.243Z,85.57
2022-10-29T02:31:39.419Z,85.62
2022-10-29T02:32:39.445Z,85.52
2022-10-29T02:34:32.608Z,85.85
2022-10-29T02:35:32.638Z,85.42
2022-10-29T02:37:25.812Z,86.19
2022-10-29T02:38:25.844Z,86.38
2022-10-29T02:40:19.023Z,85.81
2022-10-29T02:41:19.054Z,86.38
2022-10-29T02:43:23.127Z,86.48
2022-10-29T02:44:23.154Z,86.19
2022-10-29T02:46:16.192Z,86.48
2022-10-29T02:47:16.182Z,86.68
2022-10-29T02:49:09.386Z,86.48
2022-10-29T02:50:09.377Z,86.48
2022-10-29T02:52:13.443Z,87.15
2022-10-29T02:53:13.476Z,86.96
2022-10-29T02:55:17.543Z,86.87
2022-10-29T02:56:17.574Z,86.87
2022-10-29T02:59:21.683Z,86.58
2022-10-29T03:01:14.885Z,86.77
2022-10-29T03:02:15.019Z,87.63
2022-10-29T03:04:08.049Z,87.25
2022-10-29T03:05:08.081Z,87.25
2022-10-29T03:07:01.099Z,87.35
2022-10-29T03:08:01.087Z,87.63
2022-10-29T03:10:05.191Z,87.73
2022-10-29T03:11:05.224Z,87.54
2022-10-29T03:12:58.696Z,87.63
2022-10-29T03:13:58.426Z,87.92
2022-10-29T03:15:51.597Z,88.21
2022-10-29T03:16:51.628Z,88.31
2022-10-29T03:18:44.810Z,87.92
2022-10-29T03:19:44.831Z,88.11
2022-10-29T03:21:38.000Z,88.11
2022-10-29T03:22:38.033Z,88.11
2022-10-29T03:24:42.136Z,88.02
2022-10-29T03:25:42.132Z,88.31
2022-10-29T03:27:35.309Z,87.92
2022-10-29T03:28:35.477Z,88.21
2022-10-29T03:30:28.547Z,88.21
2022-10-29T03:31:28.539Z,88.40
2022-10-29T03:33:21.711Z,88.69
2022-10-29T03:34:21.735Z,88.49
2022-10-29T03:36:14.816Z,88.11
2022-10-29T03:37:14.753Z,89.26
2022-10-29T03:39:18.809Z,88.69
2022-10-29T03:40:18.840Z,88.59
2022-10-29T03:42:12.020Z,88.79
2022-10-29T03:43:12.054Z,88.69
2022-10-29T03:45:05.262Z,88.69
2022-10-29T03:46:05.257Z,88.49
2022-10-29T03:47:58.682Z,88.49
2022-10-29T03:48:58.461Z,88.59
2022-10-29T03:51:02.591Z,88.98
2022-10-29T03:52:02.556Z,88.49
2022-10-29T03:54:06.657Z,88.88
2022-10-29T03:55:06.685Z,89.12
2022-10-29T03:56:59.677Z,89.55
2022-10-29T03:57:59.708Z,90.08
2022-10-29T04:00:03.811Z,89.61
2022-10-29T04:01:03.804Z,89.61
2022-10-29T04:03:07.928Z,89.41
2022-10-29T04:04:07.904Z,89.61
2022-10-29T04:06:01.112Z,89.89
2022-10-29T04:07:01.104Z,89.61
2022-10-29T04:08:54.286Z,89.61
2022-10-29T04:09:54.322Z,89.89
2022-10-29T04:11:47.491Z,89.41
2022-10-29T04:12:47.517Z,89.61
2022-10-29T04:14:44.597Z,89.99
2022-10-29T04:15:40.721Z,89.41
2022-10-29T04:17:33.893Z,89.79
2022-10-29T04:18:33.928Z,89.51
2022-10-29T04:20:45.379Z,89.89
2022-10-29T04:29:17.424Z,89.99
2022-10-29T04:30:17.455Z,89.99
2022-10-29T04:32:10.633Z,89.99
2022-10-29T04:33:10.667Z,90.18
2022-10-29T04:35:03.837Z,89.99
2022-10-29T04:36:03.866Z,89.61
2022-10-29T04:38:08.001Z,90.37
2022-10-29T04:39:07.999Z,90.47
2022-10-29T04:41:01.174Z,90.56
2022-10-29T04:42:01.199Z,90.47
2022-10-29T04:44:05.308Z,90.56
2022-10-29T04:45:05.304Z,90.28
2022-10-29T04:46:58.321Z,90.47
2022-10-29T04:47:58.617Z,90.37
2022-10-29T04:50:02.392Z,90.08
2022-10-29T04:51:02.419Z,90.37
2022-10-29T04:52:55.597Z,90.37
2022-10-29T04:53:55.623Z,90.18
2022-10-29T04:57:18.634Z,90.47
2022-10-29T04:58:18.620Z,90.66
2022-10-29T05:00:16.273Z,90.37
2022-10-29T05:01:12.020Z,90.75
2022-10-29T05:03:05.018Z,90.66
2022-10-29T05:04:05.046Z,91.14
2022-10-29T05:06:09.118Z,90.66
2022-10-29T05:07:09.152Z,91.05
2022-10-29T05:09:02.358Z,90.85
2022-10-29T05:10:02.363Z,90.85
2022-10-29T05:11:55.515Z,90.85
2022-10-29T05:12:55.891Z,90.95
2022-10-29T05:14:59.619Z,91.14
2022-10-29T05:15:59.653Z,90.85
2022-10-29T05:18:03.813Z,91.42
2022-10-29T05:19:03.842Z,91.24
2022-10-29T05:20:57.010Z,91.05
2022-10-29T05:21:57.060Z,91.81
2022-10-29T05:23:50.246Z,91.91
2022-10-29T05:24:50.244Z,91.91
2022-10-29T05:26:43.262Z,91.05
2022-10-29T05:27:43.268Z,91.42
2022-10-29T05:29:47.319Z,91.48
2022-10-29T05:30:47.350Z,91.62
2022-10-29T05:32:51.420Z,91.72
2022-10-29T05:33:53.964Z,91.62
2022-10-29T05:35:55.578Z,91.57
2022-10-29T05:36:55.571Z,91.52
2022-10-29T05:38:48.785Z,91.52
2022-10-29T05:39:48.772Z,91.62
2022-10-29T05:41:41.975Z,91.52
2022-10-29T05:42:47.166Z,91.86
2022-10-29T05:44:35.145Z,91.81
2022-10-29T05:45:35.175Z,91.96
2022-10-29T05:47:39.279Z,91.86
2022-10-29T05:48:39.276Z,91.96
2022-10-29T05:50:43.381Z,92.05
2022-10-29T05:51:43.376Z,91.77
2022-10-29T05:53:36.621Z,92.15
2022-10-29T05:54:36.575Z,92.72
2022-10-29T05:56:29.602Z,92.82
2022-10-29T05:57:29.595Z,92.72
2022-10-29T05:59:22.768Z,92.54
2022-10-29T06:00:22.796Z,92.82
2022-10-29T06:02:27.022Z,92.54
2022-10-29T06:03:26.912Z,92.72
2022-10-29T06:05:20.093Z,92.72
2022-10-29T06:06:20.270Z,92.63
2022-10-29T06:08:13.296Z,92.63
2022-10-29T06:09:13.324Z,92.63
2022-10-29T06:11:17.403Z,93.21
2022-10-29T06:12:17.425Z,92.72
2022-10-29T06:14:21.502Z,93.49
2022-10-29T06:15:21.533Z,94.07
2022-10-29T06:17:14.704Z,93.40
2022-10-29T06:18:14.735Z,93.49
2022-10-29T06:20:18.816Z,94.26
2022-10-29T06:21:18.842Z,93.49
2022-10-29T06:23:22.942Z,93.49
2022-10-29T06:24:22.971Z,93.40
2022-10-29T06:26:15.957Z,93.49
2022-10-29T06:27:15.993Z,93.30
2022-10-29T06:29:09.217Z,93.49
2022-10-29T06:30:09.209Z,93.30
2022-10-29T06:32:02.377Z,93.59
2022-10-29T06:33:02.406Z,93.59
2022-10-29T06:34:55.580Z,93.68
2022-10-29T06:35:55.608Z,93.11
2022-10-29T06:37:48.897Z,93.21
2022-10-29T06:38:48.806Z,93.59
2022-10-29T06:40:52.914Z,93.59
2022-10-29T06:41:52.907Z,93.30
2022-10-29T06:43:56.981Z,93.59
2022-10-29T06:44:57.009Z,93.97
2022-10-29T06:46:49.989Z,93.49
2022-10-29T06:47:50.029Z,93.49
2022-10-29T06:49:43.196Z,93.49
2022-10-29T06:50:43.224Z,93.59
2022-10-29T06:52:47.350Z,93.40
2022-10-29T06:53:47.348Z,93.01
2022-10-29T06:55:40.521Z,93.21
2022-10-29T06:56:40.549Z,92.91
2022-10-29T06:58:33.750Z,93.30
2022-10-29T06:59:33.780Z,93.11
2022-10-29T07:01:31.499Z,93.49
2022-10-29T07:02:26.946Z,93.49
2022-10-29T07:04:20.300Z,92.77
2022-10-29T07:05:20.144Z,92.86
2022-10-29T07:08:24.254Z,92.77
2022-10-29T07:10:17.421Z,92.96
2022-10-29T07:11:17.451Z,93.06
2022-10-29T07:13:10.662Z,92.39
2022-10-29T07:14:10.650Z,93.15
2022-10-29T07:16:03.826Z,92.86
2022-10-29T07:17:03.853Z,93.54
2022-10-29T07:19:07.951Z,92.68
2022-10-29T07:20:07.976Z,92.48
2022-10-29T07:22:01.176Z,93.06
2022-10-29T07:23:01.173Z,92.86
2022-10-29T07:24:57.132Z,93.35
2022-10-29T07:25:54.373Z,93.54
2022-10-29T07:27:58.884Z,92.96
2022-10-29T07:28:58.460Z,92.77
2022-10-29T07:30:51.675Z,93.25
2022-10-29T07:31:51.668Z,92.77
2022-10-29T07:33:44.837Z,93.15
2022-10-29T07:34:44.866Z,92.68
2022-10-29T07:36:37.863Z,92.68
2022-10-29T07:37:37.894Z,93.63
2022-10-29T07:39:41.995Z,92.86
2022-10-29T07:40:41.991Z,93.44
2022-10-29T07:42:35.171Z,93.06
2022-10-29T07:43:35.190Z,92.96
2022-10-29T07:45:28.434Z,92.86
2022-10-29T07:46:28.390Z,92.86
2022-10-29T07:48:21.611Z,92.19
2022-10-29T07:49:21.591Z,91.86
2022-10-29T07:51:25.663Z,92.24
2022-10-29T07:52:25.690Z,92.24
2022-10-29T07:54:29.762Z,91.96
2022-10-29T07:57:22.961Z,92.63
2022-10-29T07:58:22.990Z,92.91
2022-10-29T08:00:16.181Z,93.49
2022-10-29T08:01:16.344Z,93.10
2022-10-29T08:03:09.398Z,92.72
2022-10-29T08:04:09.393Z,92.72
2022-10-29T08:06:13.490Z,92.91
2022-10-29T08:07:13.484Z,93.01
2022-10-29T08:09:06.662Z,91.86
2022-10-29T08:10:06.693Z,92.00
2022-10-29T08:11:59.863Z,91.81
2022-10-29T08:13:00.510Z,91.81
2022-10-29T08:14:53.100Z,91.61
2022-10-29T08:15:53.094Z,91.81
2022-10-29T08:17:46.264Z,91.04
2022-10-29T08:18:46.296Z,91.33
2022-10-29T08:20:39.467Z,91.23
2022-10-29T08:21:39.502Z,91.13
2022-10-29T08:23:43.631Z,90.37
2022-10-29T08:24:43.621Z,90.27
2022-10-29T08:26:36.615Z,90.51
2022-10-29T08:27:36.645Z,90.60
2022-10-29T08:29:29.853Z,90.03
2022-10-29T08:30:29.848Z,89.93
2022-10-29T08:32:23.024Z,89.83
2022-10-29T08:33:23.055Z,90.03
2022-10-29T08:34:23.089Z,89.54
2022-10-29T08:35:23.153Z,89.74
2022-10-29T08:36:23.161Z,89.16
2022-10-29T08:37:23.232Z,89.16
2022-10-29T08:38:23.233Z,89.07
2022-10-29T08:39:23.267Z,88.92
2022-10-29T08:40:23.306Z,89.21
2022-10-29T08:41:23.343Z,88.82
2022-10-29T08:42:23.380Z,88.73
2022-10-29T08:43:23.411Z,88.82
2022-10-29T08:44:23.450Z,88.82
2022-10-29T08:45:23.503Z,88.53
2022-10-29T08:46:23.525Z,87.48
2022-10-29T08:47:23.557Z,86.90
2022-10-29T08:48:23.598Z,87.19
2022-10-29T08:49:23.632Z,87.23
2022-10-29T08:50:23.666Z,86.46
2022-10-29T08:51:23.701Z,86.85
2022-10-29T08:52:23.744Z,86.65
2022-10-29T08:53:25.162Z,87.13
2022-10-29T08:54:32.040Z,87.13
2022-10-29T08:55:23.850Z,87.33
2022-10-29T08:56:23.887Z,86.46
2022-10-29T08:57:23.923Z,85.78
2022-10-29T08:58:23.964Z,86.27
2022-10-29T08:59:23.994Z,85.78
2022-10-29T09:00:24.035Z,85.78
2022-10-29T09:01:24.230Z,85.78
2022-10-29T09:02:24.181Z,85.44
2022-10-29T09:03:24.140Z,85.35
2022-10-29T09:04:24.182Z,85.06
2022-10-29T09:05:24.214Z,85.35
2022-10-29T09:06:24.251Z,84.87
2022-10-29T09:07:24.286Z,85.44
2022-10-29T09:08:24.324Z,84.77
2022-10-29T09:09:24.361Z,83.72
2022-10-29T09:10:24.398Z,84.39
2022-10-29T09:11:24.434Z,84.62
2022-10-29T09:12:24.469Z,84.33
2022-10-29T09:13:24.511Z,84.33
2022-10-29T09:14:24.545Z,83.95
2022-10-29T09:15:24.581Z,83.66
2022-10-29T09:16:24.626Z,83.18
2022-10-29T09:17:24.662Z,83.08
2022-10-29T09:18:24.692Z,82.93
2022-10-29T09:19:24.732Z,82.89
2022-10-29T09:20:24.776Z,83.12
2022-10-29T09:21:24.809Z,83.31
2022-10-29T09:22:24.841Z,82.83
2022-10-29T09:23:24.878Z,82.64
2022-10-29T09:24:24.917Z,81.68
2022-10-29T09:25:24.958Z,82.26
2022-10-29T09:26:24.991Z,81.20
2022-10-29T09:27:25.027Z,81.10
2022-10-29T09:28:25.064Z,81.01
2022-10-29T09:29:25.104Z,80.62
2022-10-29T09:30:25.140Z,80.71
2022-10-29T09:31:25.178Z,79.94
2022-10-29T09:32:25.215Z,80.33
2022-10-29T09:33:25.251Z,80.71
2022-10-29T09:34:25.289Z,81.29
2022-10-29T09:35:25.332Z,81.10
2022-10-29T09:36:25.362Z,80.81
2022-10-29T09:37:25.400Z,80.71
2022-10-29T09:38:25.443Z,80.81
2022-10-29T09:39:27.192Z,81.01
2022-10-29T09:40:25.513Z,81.10
2022-10-29T09:41:25.550Z,81.48
2022-10-29T09:42:25.589Z,80.81
2022-10-29T09:43:25.627Z,81.14
2022-10-29T09:44:25.661Z,81.81
2022-10-29T09:45:25.697Z,80.76
2022-10-29T09:46:25.736Z,79.60
2022-10-29T09:47:25.773Z,80.22
2022-10-29T09:48:25.810Z,79.64
2022-10-29T09:49:25.848Z,79.64
2022-10-29T09:50:25.884Z,78.86
2022-10-29T09:51:25.923Z,78.67
2022-10-29T09:52:25.962Z,78.48
2022-10-29T09:53:25.998Z,78.58
2022-10-29T09:54:26.037Z,77.13
2022-10-29T09:55:26.074Z,77.61
2022-10-29T09:56:26.110Z,77.61
2022-10-29T09:57:26.149Z,77.33
2022-10-29T09:58:26.186Z,77.61
2022-10-29T09:59:26.223Z,77.61
2022-10-29T10:00:26.264Z,77.71
2022-10-29T10:01:26.360Z,78.00
2022-10-29T10:02:26.379Z,77.71
2022-10-29T10:03:26.372Z,78.54
2022-10-29T10:04:26.408Z,78.73
2022-10-29T10:05:26.540Z,79.31
2022-10-29T10:06:26.486Z,79.98
2022-10-29T10:07:26.552Z,80.08
2022-10-29T10:08:26.556Z,80.27
2022-10-29T10:09:26.609Z,80.08
2022-10-29T10:10:26.632Z,79.50
2022-10-29T10:11:26.671Z,79.94
2022-10-29T10:12:26.709Z,79.75
2022-10-29T10:13:27.620Z,79.94
2022-10-29T10:14:26.782Z,79.94
2022-10-29T10:15:26.855Z,79.46
2022-10-29T10:16:26.855Z,79.56
2022-10-29T10:17:26.897Z,80.33
2022-10-29T10:18:26.932Z,80.91
2022-10-29T10:19:26.980Z,81.48
2022-10-29T10:20:27.008Z,81.10
2022-10-29T10:21:27.043Z,81.68
2022-10-29T10:22:27.081Z,81.39
2022-10-29T10:23:27.123Z,81.20
2022-10-29T10:24:27.156Z,81.48
2022-10-29T10:25:27.272Z,81.20
2022-10-29T10:26:27.230Z,81.20
2022-10-29T10:27:27.268Z,80.85
2022-10-29T10:28:27.312Z,80.02
2022-10-29T10:29:27.370Z,79.58
2022-10-29T10:30:27.380Z,79.00
2022-10-29T10:31:27.417Z,78.27
2022-10-29T10:32:27.454Z,77.53
2022-10-29T10:33:27.495Z,76.61
2022-10-29T10:34:27.530Z,75.20
2022-10-29T10:35:27.568Z,73.84
2022-10-29T10:36:27.606Z,72.91
2022-10-29T10:37:27.645Z,72.46
2022-10-29T10:38:27.683Z,71.20
2022-10-29T10:39:27.723Z,70.86
2022-10-29T10:40:27.759Z,69.63
2022-10-29T10:41:27.800Z,68.12
2022-10-29T10:42:27.837Z,67.08
2022-10-29T10:43:27.875Z,66.11
2022-10-29T10:44:27.916Z,65.56
2022-10-29T10:45:27.955Z,64.43
2022-10-29T10:46:27.991Z,62.04
2022-10-29T10:47:28.032Z,61.32
2022-10-29T10:48:33.362Z,59.79
2022-10-29T10:49:28.112Z,58.75
2022-10-29T10:50:28.154Z,57.45
2022-10-29T10:51:28.192Z,56.57
2022-10-29T10:52:28.231Z,54.26
2022-10-29T10:53:28.274Z,54.75
2022-10-29T10:54:28.356Z,54.82
2022-10-29T10:55:28.353Z,55.89
2022-10-29T10:56:28.477Z,54.82
2022-10-29T10:57:28.471Z,53.38
2022-10-29T10:58:28.522Z,53.48
2022-10-29T10:59:28.514Z,53.80
2022-10-29T11:00:28.557Z,52.95
2022-10-29T11:01:28.745Z,52.26
2022-10-29T11:02:28.729Z,51.51
2022-10-29T11:03:28.678Z,51.92
2022-10-29T11:04:28.718Z,51.34
2022-10-29T11:05:28.758Z,50.59
2022-10-29T11:06:28.798Z,49.51
2022-10-29T11:07:28.840Z,49.49
2022-10-29T11:08:28.880Z,50.07
2022-10-29T11:09:28.922Z,49.95
2022-10-29T11:10:28.965Z,49.39
2022-10-29T11:11:29.009Z,49.85
2022-10-29T11:12:29.046Z,50.53
2022-10-29T11:13:29.089Z,51.02
2022-10-29T11:14:29.131Z,51.12
2022-10-29T11:15:29.172Z,51.39
2022-10-29T11:16:29.214Z,51.56
2022-10-29T11:17:29.257Z,51.46
2022-10-29T11:18:30.285Z,51.56
2022-10-29T11:19:31.372Z,52.50
2022-10-29T11:20:36.628Z,53.75
2022-10-29T11:22:33.453Z,54.21
2022-10-29T11:23:33.486Z,54.38
2022-10-29T11:25:37.554Z,55.93
2022-10-29T11:26:37.673Z,55.44
2022-10-29T11:28:41.696Z,56.10
2022-10-29T11:29:42.969Z,56.00
2022-10-29T11:31:45.770Z,56.39
2022-10-29T11:32:45.813Z,57.07
2022-10-29T11:34:49.920Z,57.53
2022-10-29T11:35:49.922Z,58.01
2022-10-29T11:37:54.338Z,59.15
2022-10-29T11:38:54.028Z,58.76
2022-10-29T11:40:58.100Z,58.54
2022-10-29T11:41:58.148Z,59.80
2022-10-29T11:44:02.263Z,59.74
2022-10-29T11:45:02.263Z,59.34
2022-10-29T11:46:55.248Z,59.25
2022-10-29T11:47:55.678Z,58.95
2022-10-29T11:49:59.385Z,59.22
2022-10-29T11:50:59.386Z,59.90
2022-10-29T11:53:03.499Z,60.06
2022-10-29T11:54:03.508Z,60.55
2022-10-29T11:56:07.601Z,60.74
2022-10-29T11:57:07.603Z,60.61
2022-10-29T11:59:11.676Z,61.98
2022-10-29T12:00:11.713Z,62.16
2022-10-29T12:02:15.818Z,62.13
2022-10-29T12:03:15.886Z,63.01
2022-10-29T12:05:19.883Z,63.56
2022-10-29T12:06:19.919Z,63.17
2022-10-29T12:08:24.036Z,63.65
2022-10-29T12:09:24.021Z,63.95
2022-10-29T12:11:28.093Z,64.50
2022-10-29T12:12:28.128Z,64.69
2022-10-29T12:14:32.232Z,65.08
2022-10-29T12:15:32.235Z,65.47
2022-10-29T12:17:36.346Z,64.53
2022-10-29T12:18:36.335Z,62.88
2022-10-29T12:20:40.433Z,63.17
2022-10-29T12:21:40.431Z,63.65
2022-10-29T12:23:44.496Z,63.88
2022-10-29T12:24:44.530Z,63.49
2022-10-29T12:26:37.555Z,61.98
2022-10-29T12:27:37.547Z,61.98
2022-10-29T12:29:41.615Z,60.38
2022-10-29T12:30:41.650Z,59.64
2022-10-29T12:32:45.711Z,58.43
2022-10-29T12:33:45.746Z,57.10
2022-10-29T12:35:49.910Z,55.11
2022-10-29T12:36:52.007Z,54.52
2022-10-29T12:38:53.918Z,53.48
2022-10-29T12:39:53.949Z,51.56
2022-10-29T12:41:58.057Z,52.24
2022-10-29T12:42:58.051Z,52.83
2022-10-29T12:45:02.117Z,52.44
2022-10-29T12:48:06.260Z,52.92
2022-10-29T12:49:06.261Z,52.73
2022-10-29T12:51:10.332Z,51.78
2022-10-29T12:52:10.370Z,51.61
2022-10-29T12:54:14.482Z,51.80
2022-10-29T12:55:14.486Z,50.95
2022-10-29T12:57:07.475Z,50.49
2022-10-29T12:58:07.507Z,49.90
2022-10-29T13:00:11.571Z,49.53
2022-10-29T13:01:11.729Z,49.04
2022-10-29T13:03:15.735Z,49.12
2022-10-29T13:04:15.720Z,49.32
2022-10-29T13:06:19.788Z,49.85
2022-10-29T13:09:23.902Z,51.78
2022-10-29T13:10:23.960Z,51.58
2022-10-29T13:12:28.031Z,51.26
2022-10-29T13:13:28.035Z,51.63
2022-10-29T13:15:32.138Z,51.41
2022-10-29T13:16:32.145Z,52.19
2022-10-29T13:18:40.445Z,52.87
2022-10-29T13:19:36.250Z,53.26
2022-10-29T13:21:40.376Z,52.73
2022-10-29T13:22:40.436Z,52.07
2022-10-29T13:24:44.432Z,49.49
2022-10-29T13:25:44.469Z,49.02
2022-10-29T13:27:48.574Z,49.68
2022-10-29T13:28:48.585Z,48.90
2022-10-29T13:30:52.647Z,50.02
2022-10-29T13:31:52.687Z,51.56
2022-10-29T13:33:56.792Z,52.80
2022-10-29T13:34:56.801Z,52.89
2022-10-29T13:36:49.819Z,53.85
2022-10-29T13:37:49.827Z,54.11
2022-10-29T13:39:53.918Z,55.71
2022-10-29T13:40:53.920Z,56.26
2022-10-29T13:42:58.410Z,55.65
2022-10-29T13:43:58.023Z,57.76
2022-10-29T13:46:02.097Z,56.62
2022-10-29T13:47:02.132Z,56.43
2022-10-29T13:49:06.244Z,55.49
2022-10-29T13:50:06.234Z,54.71
2022-10-29T13:52:10.308Z,55.13
2022-10-29T13:53:13.320Z,55.03
2022-10-29T13:55:14.406Z,53.79
2022-10-29T13:56:14.455Z,53.50
2022-10-29T13:58:18.509Z,54.25
2022-10-29T13:59:18.547Z,54.74
2022-10-29T14:01:22.773Z,55.51
2022-10-29T14:02:22.808Z,55.88
2022-10-29T14:04:26.715Z,55.98
2022-10-29T14:05:26.745Z,55.58
2022-10-29T14:07:30.817Z,56.14
2022-10-29T14:08:30.852Z,57.21
2022-10-29T14:10:34.919Z,57.11
2022-10-29T14:11:34.955Z,55.98
2022-10-29T14:13:39.019Z,56.92
2022-10-29T14:14:39.055Z,55.94
2022-10-29T14:16:32.041Z,56.43
2022-10-29T14:17:32.078Z,57.11
2022-10-29T14:19:36.144Z,57.37
2022-10-29T14:20:36.177Z,57.64
2022-10-29T14:22:40.244Z,59.38
2022-10-29T14:23:40.279Z,60.32
2022-10-29T14:25:44.346Z,60.58
2022-10-29T14:26:44.388Z,60.58
2022-10-29T14:28:48.485Z,61.94
2022-10-29T14:29:50.489Z,62.10
2022-10-29T14:31:52.577Z,62.56
2022-10-29T14:32:52.578Z,62.95
2022-10-29T14:34:45.603Z,63.43
2022-10-29T14:35:45.634Z,63.98
2022-10-29T14:37:49.699Z,64.95
2022-10-29T14:38:49.760Z,65.34
2022-10-29T14:40:53.793Z,65.59
2022-10-29T14:41:53.829Z,65.79
2022-10-29T14:43:57.893Z,66.24
2022-10-29T14:44:57.926Z,66.24
2022-10-29T14:45:57.966Z,66.53
2022-10-29T14:46:58.164Z,67.01
2022-10-29T14:47:58.044Z,66.82
2022-10-29T14:48:58.101Z,67.01
2022-10-29T14:49:58.131Z,67.59
2022-10-29T14:50:58.160Z,66.59
2022-10-29T14:51:58.203Z,67.66
2022-10-29T14:52:58.638Z,67.17
2022-10-29T14:53:58.284Z,67.08
2022-10-29T14:54:58.321Z,67.56
2022-10-29T14:55:58.360Z,67.85
2022-10-29T14:56:58.399Z,67.82
2022-10-29T14:57:58.439Z,68.01
2022-10-29T14:58:58.480Z,68.30
2022-10-29T14:59:58.519Z,68.30
2022-10-29T15:00:58.660Z,69.74
2022-10-29T15:02:05.768Z,69.56
2022-10-29T15:02:59.156Z,69.36
2022-10-29T15:03:58.679Z,69.65
2022-10-29T15:05:01.856Z,69.42
2022-10-29T15:05:58.757Z,69.71
2022-10-29T15:06:58.791Z,69.62
2022-10-29T15:07:58.832Z,70.58
2022-10-29T15:08:58.883Z,70.58
2022-10-29T15:09:58.908Z,70.97
2022-10-29T15:10:58.947Z,71.06
2022-10-29T15:11:59.002Z,71.55
2022-10-29T15:12:59.373Z,71.51
2022-10-29T15:13:59.063Z,71.70
2022-10-29T15:14:59.100Z,72.28
2022-10-29T15:15:59.143Z,72.48
2022-10-29T15:16:59.178Z,72.19
2022-10-29T15:17:59.620Z,72.77
2022-10-29T15:18:59.256Z,73.35
2022-10-29T15:19:59.328Z,73.15
2022-10-29T15:20:59.333Z,73.44
2022-10-29T15:21:59.404Z,73.25
2022-10-29T15:22:59.412Z,73.83
2022-10-29T15:23:59.449Z,73.79
2022-10-29T15:24:59.486Z,73.73
2022-10-29T15:25:59.528Z,74.37
2022-10-29T15:26:59.563Z,74.27
2022-10-29T15:27:59.953Z,74.12
2022-10-29T15:28:59.645Z,74.08
2022-10-29T15:29:59.683Z,74.37
2022-10-29T15:30:59.715Z,74.57
2022-10-29T15:31:59.757Z,74.47
2022-10-29T15:32:59.932Z,74.57
2022-10-29T15:33:59.832Z,74.47
2022-10-29T15:34:59.869Z,74.85
2022-10-29T15:35:59.906Z,74.85
2022-10-29T15:36:59.945Z,75.43
2022-10-29T15:37:59.986Z,75.34
2022-10-29T15:39:00.024Z,75.72
2022-10-29T15:40:00.059Z,75.78
2022-10-29T15:41:00.111Z,75.92
2022-10-29T15:42:00.137Z,75.49
2022-10-29T15:43:00.496Z,76.07
2022-10-29T15:44:00.211Z,76.36
2022-10-29T15:45:00.285Z,76.45
2022-10-29T15:46:00.289Z,76.65
2022-10-29T15:47:00.331Z,76.84
2022-10-29T15:48:00.681Z,77.13
2022-10-29T15:49:00.402Z,76.75
2022-10-29T15:50:00.447Z,77.03
2022-10-29T15:51:00.477Z,77.61
2022-10-29T15:52:00.527Z,77.67
2022-10-29T15:53:00.554Z,77.38
2022-10-29T15:54:00.595Z,77.28
2022-10-29T15:55:00.637Z,77.28
2022-10-29T15:56:00.668Z,77.28
2022-10-29T15:57:00.704Z,78.06
2022-10-29T15:58:00.915Z,77.48
2022-10-29T15:59:00.780Z,77.48
2022-10-29T16:00:00.928Z,78.15
2022-10-29T16:01:00.876Z,78.34
2022-10-29T16:02:01.006Z,77.86
2022-10-29T16:03:00.939Z,78.25
2022-10-29T16:04:00.970Z,78.34
2022-10-29T16:05:01.042Z,77.86
2022-10-29T16:06:01.045Z,77.96
2022-10-29T16:07:01.087Z,77.76
2022-10-29T16:08:01.121Z,77.76
2022-10-29T16:09:01.160Z,77.76
2022-10-29T16:10:01.204Z,77.76
2022-10-29T16:11:01.239Z,78.06
2022-10-29T16:12:01.272Z,77.96
2022-10-29T16:13:01.311Z,78.83
2022-10-29T16:14:01.352Z,78.83
2022-10-29T16:15:01.385Z,78.63
2022-10-29T16:16:01.423Z,78.73
2022-10-29T16:17:01.459Z,78.54
2022-10-29T16:18:01.497Z,78.63
2022-10-29T16:19:01.538Z,78.34
2022-10-29T16:20:01.571Z,78.34
2022-10-29T16:21:01.615Z,78.34
2022-10-29T16:22:01.657Z,78.83
2022-10-29T16:23:01.684Z,78.83
2022-10-29T16:24:01.723Z,78.92
2022-10-29T16:25:01.760Z,79.02
2022-10-29T16:26:01.801Z,78.83
2022-10-29T16:27:01.834Z,79.08
2022-10-29T16:28:01.875Z,79.31
2022-10-29T16:29:01.908Z,79.17